Aérodrome :
LOGIN :

S'inscrire | Disclaimer

   EN    FR    IT 

 










Légende :    VFR   VFR Marginal   IFR   IFR Intensif   IFR Très Intensif
Visi : 
Plafond : 
>= 8 km
>= 3000ft
5 à 8 km
1000 à 3000 ft
1500m à 5 km
500 à 1000 ft
800 à 1500m
200 à 500 ft
< 800m
< 200 ft
Symboles :   Orages  Brouillard  Fortes neiges  Fortes précipitations  Vent > 20 kt
SIGMETs :   Divers  Orages  Givrage  Turbulence  Onde Orograph.  Cendres Volcan.






- Altitude de l'aérodrome : 364 ft


LFAQ - Albert Bray

DERNIER METAR :
  • 121830Z AUTO 21013KT CAVOK 04/02 Q1000

METARs EXPIRÉS :
  • 121800Z AUTO 20012KT CAVOK 04/02 Q1000 TEMPO 23015G25KT 2000 TSRA BKN013 BKN030CB
  • 121730Z AUTO 21012KT CAVOK 04/03 Q1000 TEMPO 23015G25KT 2000 TSRA BKN013 BKN030CB
  • 121700Z AUTO 21012KT 9999 FEW043 BKN100 BKN120 05/03 Q1001 NOSIG
  • 121630Z AUTO 21010KT 9999 FEW040 BKN100 BKN120 05/03 Q1001 NOSIG
  • 121600Z AUTO 22012KT 9999 BKN037 BKN043 BKN100 06/03 Q1001 NOSIG

TAF TAF LFAQ
Valide du 12 à 15h jusqu'au 13 à 00h UTC


121400Z 1215/1224 23013KT 9999 BKN030
TEMPO 1219/1224 4000 SHRA BKN013 BKN030CB
PROB30
TEMPO 1219/1221 23015G25KT 2000 TSRA



MET'MAP, la Météo Aéronautique d'un coup d'oeil ! - Copyright ORBIFLY Décembre 2007 - Disclaimer

ORBIFLY MET'MAP TEAM :

Programmation & Développement : Alexandra Zaïnal
Conception & Développement : Baudouin d'Aumeries
Co-Programmation & Développement : Marc-Olivier Méhu
Soutien technique & logistique : Manuel Goepfert

Contact : metmap@orbifly.com




SOURCES & CREDITS :

   NOAA